Terminal Aerodrome Forecast
Issued by NWS

Home | Current Version | Previous Version | Graphics & Text | Print | Product List | Glossary On
Versions: 1 2 3 4 5 6 7 8 9 10 11 12 13 14 15 16 17 18 19 20 21 22 23 24 25 26 27 28 29 30 31 32 33 34 35 36 37 38 39 40
000
FTUS43 KDLH 221800 AAA
TAFBRD
TAF AMD
KBRD 221801Z 2218/2318 23003KT P6SM OVC012
     FM222000 02004KT P6SM BKN015
     FM230500 05003KT 5SM BR SCT035
     FM230800 00000KT 1 1/2SM BR OVC003
     FM231600 06007KT P6SM OVC015=

USA.gov is the U.S. government's official web portal to all federal, state and local government web resources and services.